createdAt,value
2018-12-17T00:00:28.896Z,69.26
2018-12-17T00:02:58.689Z,69.11
2018-12-17T00:05:30.550Z,69.46
2018-12-17T00:08:00.614Z,69.61
2018-12-17T00:10:31.021Z,69.77
2018-12-17T00:13:00.697Z,69.98
2018-12-17T00:15:34.104Z,69.53
2018-12-17T00:18:04.457Z,69.61
2018-12-17T00:20:39.093Z,70.17
2018-12-17T00:23:10.985Z,70.03
2018-12-17T00:25:41.005Z,69.59
2018-12-17T00:28:11.662Z,69.54
2018-12-17T00:30:41.236Z,69.65
2018-12-17T00:33:12.739Z,68.94
2018-12-17T00:35:42.430Z,69.12
2018-12-17T00:38:12.569Z,69.20
2018-12-17T00:40:44.727Z,68.68
2018-12-17T00:43:14.256Z,68.68
2018-12-17T00:45:43.970Z,68.59
2018-12-17T00:48:13.673Z,68.53
2018-12-17T00:50:43.417Z,68.45
2018-12-17T00:53:13.223Z,68.68
2018-12-17T00:55:42.769Z,68.97
2018-12-17T00:58:15.276Z,69.38
2018-12-17T01:00:45.020Z,69.25
2018-12-17T01:03:14.809Z,69.56
2018-12-17T01:05:44.492Z,69.45
2018-12-17T01:08:14.209Z,69.62
2018-12-17T01:10:44.113Z,69.63
2018-12-17T01:13:13.863Z,69.69
2018-12-17T01:15:43.839Z,69.46
2018-12-17T01:18:14.794Z,69.98
2018-12-17T01:20:44.894Z,69.75
2018-12-17T01:23:14.654Z,70.07
2018-12-17T01:25:45.764Z,69.79
2018-12-17T01:28:22.158Z,70.05
2018-12-17T01:30:48.593Z,69.78
2018-12-17T01:33:20.140Z,69.95
2018-12-17T01:35:50.313Z,69.95
2018-12-17T01:38:20.211Z,69.77
2018-12-17T01:40:50.041Z,70.38
2018-12-17T01:43:20.629Z,70.65
2018-12-17T01:45:50.539Z,70.51
2018-12-17T01:48:20.644Z,70.48
2018-12-17T01:50:50.559Z,70.36
2018-12-17T01:53:19.994Z,70.35
2018-12-17T01:55:50.023Z,70.08
2018-12-17T01:58:20.291Z,70.24
2018-12-17T02:00:49.953Z,70.50
2018-12-17T02:03:19.919Z,70.14
2018-12-17T02:05:49.578Z,69.87
2018-12-17T02:08:19.635Z,70.14
2018-12-17T02:10:49.860Z,69.84
2018-12-17T02:13:19.613Z,70.19
2018-12-17T02:15:49.460Z,70.01
2018-12-17T02:18:19.460Z,70.31
2018-12-17T02:20:49.248Z,70.03
2018-12-17T02:23:18.858Z,70.35
2018-12-17T02:25:48.772Z,70.55
2018-12-17T02:28:18.442Z,70.54
2018-12-17T02:30:48.004Z,70.68
2018-12-17T02:33:17.855Z,70.77
2018-12-17T02:35:47.536Z,70.87
2018-12-17T02:38:17.302Z,70.98
2018-12-17T02:40:47.163Z,71.04
2018-12-17T02:43:16.830Z,71.17
2018-12-17T02:45:46.501Z,70.91
2018-12-17T02:48:16.768Z,70.61
2018-12-17T02:50:46.698Z,70.54
2018-12-17T02:53:16.811Z,70.68
2018-12-17T02:55:46.976Z,70.58
2018-12-17T02:58:17.600Z,70.51
2018-12-17T03:00:47.886Z,70.54
2018-12-17T03:03:17.748Z,70.27
2018-12-17T03:05:47.573Z,70.33
2018-12-17T03:08:17.740Z,70.38
2018-12-17T03:10:47.535Z,70.53
2018-12-17T03:13:18.054Z,71.03
2018-12-17T03:15:47.781Z,70.51
2018-12-17T03:18:17.892Z,70.39
2018-12-17T03:20:47.330Z,70.59
2018-12-17T03:23:17.064Z,70.49
2018-12-17T03:25:47.490Z,70.44
2018-12-17T03:28:18.575Z,70.39
2018-12-17T03:30:48.311Z,70.40
2018-12-17T03:33:19.423Z,70.39
2018-12-17T03:35:49.045Z,70.49
2018-12-17T03:38:18.637Z,70.46
2018-12-17T03:40:49.001Z,70.19
2018-12-17T03:43:19.555Z,70.23
2018-12-17T03:45:49.277Z,70.34
2018-12-17T03:48:19.955Z,70.30
2018-12-17T03:50:49.343Z,69.72
2018-12-17T03:53:18.892Z,70.27
2018-12-17T03:55:49.006Z,70.61
2018-12-17T03:58:18.933Z,70.50
2018-12-17T04:00:48.463Z,70.77
2018-12-17T04:03:18.748Z,70.99
2018-12-17T04:05:48.248Z,71.44
2018-12-17T04:08:18.509Z,71.67
2018-12-17T04:10:48.860Z,71.59
2018-12-17T04:13:21.045Z,71.56
2018-12-17T04:15:50.748Z,71.93
2018-12-17T04:18:21.306Z,71.57
2018-12-17T04:20:51.025Z,71.88
2018-12-17T04:29:49.628Z,71.92
2018-12-17T04:32:19.923Z,72.16
2018-12-17T04:34:49.693Z,72.57
2018-12-17T04:37:19.470Z,72.49
2018-12-17T04:39:49.049Z,72.51
2018-12-17T04:42:19.338Z,72.35
2018-12-17T04:44:49.123Z,72.34
2018-12-17T04:47:18.525Z,72.15
2018-12-17T04:49:48.207Z,72.10
2018-12-17T04:52:17.821Z,71.91
2018-12-17T04:54:47.560Z,71.98
2018-12-17T04:57:17.340Z,71.93
2018-12-17T04:59:46.934Z,72.02
2018-12-17T05:02:16.282Z,71.98
2018-12-17T05:04:46.334Z,72.06
2018-12-17T05:07:16.503Z,72.11
2018-12-17T05:09:46.270Z,72.20
2018-12-17T05:12:20.026Z,72.31
2018-12-17T05:14:49.526Z,72.42
2018-12-17T05:17:19.343Z,72.17
2018-12-17T05:19:49.732Z,72.33
2018-12-17T05:22:19.840Z,71.80
2018-12-17T05:24:49.452Z,71.72
2018-12-17T05:27:19.601Z,71.62
2018-12-17T05:29:49.056Z,71.69
2018-12-17T05:32:18.777Z,71.70
2018-12-17T05:34:48.978Z,71.26
2018-12-17T05:37:20.053Z,71.35
2018-12-17T05:39:49.942Z,71.38
2018-12-17T05:42:20.106Z,70.99
2018-12-17T05:44:49.570Z,71.26
2018-12-17T05:47:19.262Z,71.39
2018-12-17T05:49:49.278Z,71.81
2018-12-17T05:52:18.611Z,71.79
2018-12-17T05:54:48.423Z,71.91
2018-12-17T05:57:18.036Z,72.45
2018-12-17T05:59:47.561Z,71.99
2018-12-17T06:02:17.855Z,72.25
2018-12-17T06:04:47.957Z,72.02
2018-12-17T06:07:18.314Z,72.30
2018-12-17T06:09:47.996Z,72.25
2018-12-17T06:12:17.777Z,72.25
2018-12-17T06:14:47.176Z,71.91
2018-12-17T06:17:16.727Z,71.73
2018-12-17T06:19:46.705Z,71.55
2018-12-17T06:22:16.028Z,71.62
2018-12-17T06:24:45.395Z,71.79
2018-12-17T06:27:14.788Z,71.76
2018-12-17T06:29:44.470Z,71.49
2018-12-17T06:32:14.039Z,71.40
2018-12-17T06:34:43.434Z,71.35
2018-12-17T06:37:13.855Z,71.40
2018-12-17T06:39:44.062Z,71.09
2018-12-17T06:42:13.857Z,70.85
2018-12-17T06:44:44.297Z,70.89
2018-12-17T06:47:15.040Z,71.17
2018-12-17T06:49:44.696Z,71.06
2018-12-17T06:52:14.922Z,71.24
2018-12-17T06:54:44.618Z,71.31
2018-12-17T06:57:14.896Z,71.34
2018-12-17T06:59:45.047Z,71.66
2018-12-17T07:02:15.966Z,71.35
2018-12-17T07:04:46.138Z,71.48
2018-12-17T07:07:16.077Z,71.20
2018-12-17T07:09:46.403Z,71.21
2018-12-17T07:12:16.813Z,71.17
2018-12-17T07:14:46.477Z,71.07
2018-12-17T07:17:16.418Z,71.13
2018-12-17T07:19:46.451Z,70.87
2018-12-17T07:22:16.244Z,71.07
2018-12-17T07:24:46.270Z,70.71
2018-12-17T07:27:15.616Z,71.07
2018-12-17T07:29:49.803Z,71.11
2018-12-17T07:32:16.815Z,70.89
2018-12-17T07:34:46.937Z,70.51
2018-12-17T07:37:18.041Z,70.69
2018-12-17T07:39:48.784Z,70.65
2018-12-17T07:42:18.456Z,71.11
2018-12-17T07:44:48.458Z,71.20
2018-12-17T07:47:18.056Z,71.15
2018-12-17T07:49:47.628Z,70.71
2018-12-17T07:52:18.002Z,70.92
2018-12-17T07:54:47.895Z,70.78
2018-12-17T07:57:17.790Z,70.74
2018-12-17T07:59:47.921Z,70.47
2018-12-17T08:02:17.990Z,70.61
2018-12-17T08:04:47.585Z,70.19
2018-12-17T08:07:17.297Z,70.22
2018-12-17T08:09:46.839Z,69.75
2018-12-17T08:12:16.785Z,69.74
2018-12-17T08:14:46.875Z,69.57
2018-12-17T08:17:17.186Z,69.43
2018-12-17T08:19:47.161Z,69.20
2018-12-17T08:22:16.895Z,68.83
2018-12-17T08:24:46.339Z,68.79
2018-12-17T08:27:15.871Z,68.32
2018-12-17T08:29:45.558Z,68.32
2018-12-17T08:32:18.031Z,68.25
2018-12-17T08:34:47.435Z,68.16
2018-12-17T08:37:16.975Z,68.28
2018-12-17T08:39:46.739Z,68.02
2018-12-17T08:42:16.796Z,68.04
2018-12-17T08:44:46.327Z,67.77
2018-12-17T08:47:15.728Z,68.21
2018-12-17T08:49:46.023Z,68.32
2018-12-17T08:52:15.492Z,68.13
2018-12-17T08:54:45.411Z,68.45
2018-12-17T08:57:16.975Z,68.32
2018-12-17T08:59:46.857Z,68.18
2018-12-17T09:02:17.589Z,68.62
2018-12-17T09:04:47.019Z,68.73
2018-12-17T09:07:18.009Z,68.52
2018-12-17T09:09:48.109Z,68.92
2018-12-17T09:12:18.312Z,68.63
2018-12-17T09:14:47.725Z,68.51
2018-12-17T09:17:17.586Z,68.72
2018-12-17T09:19:47.030Z,68.34
2018-12-17T09:22:16.887Z,68.13
2018-12-17T09:24:47.444Z,68.66
2018-12-17T09:27:17.768Z,68.74
2018-12-17T09:29:47.334Z,68.30
2018-12-17T09:32:18.661Z,68.30
2018-12-17T09:34:48.426Z,67.91
2018-12-17T09:37:19.557Z,67.97
2018-12-17T09:39:49.447Z,67.64
2018-12-17T09:42:19.004Z,67.07
2018-12-17T09:44:48.764Z,67.07
2018-12-17T09:47:18.144Z,66.79
2018-12-17T09:49:47.520Z,66.39
2018-12-17T09:52:17.172Z,66.26
2018-12-17T09:54:46.777Z,65.84
2018-12-17T09:57:16.341Z,65.75
2018-12-17T09:59:46.144Z,65.76
2018-12-17T10:02:15.674Z,65.84
2018-12-17T10:04:45.277Z,65.83
2018-12-17T10:07:15.425Z,65.42
2018-12-17T10:09:45.272Z,65.67
2018-12-17T10:12:14.743Z,65.20
2018-12-17T10:14:44.922Z,64.90
2018-12-17T10:17:14.937Z,65.05
2018-12-17T10:19:44.481Z,64.63
2018-12-17T10:22:14.657Z,64.58
2018-12-17T10:24:44.257Z,64.61
2018-12-17T10:27:13.716Z,64.23
2018-12-17T10:29:43.418Z,63.82
2018-12-17T10:32:12.895Z,64.00
2018-12-17T10:34:45.152Z,63.73
2018-12-17T10:37:15.794Z,63.51
2018-12-17T10:39:45.309Z,63.81
2018-12-17T10:42:15.326Z,62.87
2018-12-17T10:44:45.197Z,63.03
2018-12-17T10:47:14.583Z,62.62
2018-12-17T10:49:44.167Z,62.51
2018-12-17T10:52:13.509Z,62.99
2018-12-17T10:54:43.554Z,62.79
2018-12-17T10:57:14.002Z,62.82
2018-12-17T10:59:43.585Z,62.31
2018-12-17T11:02:18.532Z,62.03
2018-12-17T11:04:53.963Z,62.00
2018-12-17T11:07:24.825Z,61.88
2018-12-17T11:09:54.901Z,62.06
2018-12-17T11:12:24.548Z,62.40
2018-12-17T11:14:54.295Z,62.55
2018-12-17T11:17:23.689Z,62.70
2018-12-17T11:19:54.051Z,62.61
2018-12-17T11:22:24.831Z,62.78
2018-12-17T11:24:55.257Z,63.15
2018-12-17T11:27:24.671Z,63.08
2018-12-17T11:29:54.221Z,62.78
2018-12-17T11:32:24.362Z,62.87
2018-12-17T11:34:54.721Z,62.50
2018-12-17T11:37:26.394Z,62.75
2018-12-17T11:39:56.469Z,62.59
2018-12-17T11:42:26.710Z,62.56
2018-12-17T11:44:57.973Z,62.14
2018-12-17T11:47:28.402Z,61.88
2018-12-17T11:49:58.390Z,61.36
2018-12-17T11:52:28.032Z,60.79
2018-12-17T11:54:57.546Z,60.09
2018-12-17T11:57:38.438Z,59.74
2018-12-17T12:00:08.770Z,59.50
2018-12-17T12:02:40.377Z,59.05
2018-12-17T12:05:10.103Z,58.92
2018-12-17T12:07:39.744Z,58.43
2018-12-17T12:10:11.623Z,58.84
2018-12-17T12:12:42.146Z,58.70
2018-12-17T12:15:12.588Z,59.11
2018-12-17T12:17:42.093Z,58.69
2018-12-17T12:20:12.588Z,58.41
2018-12-17T12:22:42.902Z,58.02
2018-12-17T12:25:12.629Z,58.34
2018-12-17T12:27:42.585Z,57.76
2018-12-17T12:30:13.076Z,58.31
2018-12-17T12:32:43.123Z,57.73
2018-12-17T12:35:14.839Z,57.22
2018-12-17T12:37:44.593Z,57.42
2018-12-17T12:40:14.505Z,56.87
2018-12-17T12:42:51.362Z,56.32
2018-12-17T12:45:16.822Z,56.80
2018-12-17T12:47:47.400Z,57.30
2018-12-17T12:50:18.643Z,57.06
2018-12-17T12:52:48.730Z,57.91
2018-12-17T12:55:18.940Z,58.33
2018-12-17T12:57:50.601Z,58.47
2018-12-17T13:00:20.303Z,58.28
2018-12-17T13:02:51.062Z,58.38
2018-12-17T13:05:20.778Z,59.35
2018-12-17T13:07:51.619Z,59.09
2018-12-17T13:10:27.532Z,59.23
2018-12-17T13:12:57.316Z,59.55
2018-12-17T13:15:26.802Z,59.35
2018-12-17T13:18:00.051Z,59.62
2018-12-17T13:20:29.846Z,59.61
2018-12-17T13:22:59.177Z,59.94
2018-12-17T13:25:38.904Z,60.51
2018-12-17T13:28:09.515Z,60.58
2018-12-17T13:30:41.894Z,60.76
2018-12-17T13:33:11.858Z,60.77
2018-12-17T13:35:43.576Z,60.51
2018-12-17T13:38:12.947Z,61.03
2018-12-17T13:40:42.619Z,61.41
2018-12-17T13:43:12.670Z,61.70
2018-12-17T13:48:26.769Z,61.76
2018-12-17T13:51:01.362Z,61.74
2018-12-17T13:53:34.788Z,62.35
2018-12-17T13:56:06.568Z,62.61
2018-12-17T13:58:38.634Z,62.64
2018-12-17T14:01:12.192Z,62.56
2018-12-17T14:03:44.014Z,62.35
2018-12-17T14:06:17.324Z,62.78
2018-12-17T14:08:47.488Z,62.83
2018-12-17T14:11:17.177Z,63.40
2018-12-17T14:13:47.249Z,63.51
2018-12-17T14:16:20.553Z,63.63
2018-12-17T14:18:56.726Z,63.72
2018-12-17T14:21:32.388Z,63.79
2018-12-17T14:24:06.189Z,63.80
2018-12-17T14:26:36.953Z,64.16
2018-12-17T14:29:10.742Z,64.41
2018-12-17T14:31:40.422Z,64.67
2018-12-17T14:34:14.000Z,64.64
2018-12-17T14:36:43.582Z,64.67
2018-12-17T14:39:19.363Z,64.49
2018-12-17T14:41:53.564Z,64.44
2018-12-17T14:44:31.077Z,64.65
2018-12-17T14:47:08.320Z,64.66
2018-12-17T14:49:47.325Z,64.80
2018-12-17T14:52:18.431Z,64.79
2018-12-17T14:54:55.990Z,64.67
2018-12-17T14:57:35.580Z,65.25
2018-12-17T15:00:12.050Z,65.38
2018-12-17T15:02:43.017Z,65.49
2018-12-17T15:05:16.071Z,66.00
2018-12-17T15:07:57.035Z,66.06
2018-12-17T15:10:31.479Z,66.42
2018-12-17T15:13:07.721Z,66.69
2018-12-17T15:18:24.402Z,66.15
2018-12-17T15:20:59.321Z,66.38
2018-12-17T15:23:35.182Z,66.57
2018-12-17T15:26:05.434Z,66.68
2018-12-17T15:28:42.072Z,67.14
2018-12-17T15:31:12.835Z,66.68
2018-12-17T15:33:44.887Z,66.92
2018-12-17T15:36:15.073Z,67.40
2018-12-17T15:38:45.127Z,67.36
2018-12-17T15:41:16.520Z,68.10
2018-12-17T15:43:46.592Z,67.98
2018-12-17T15:46:16.056Z,67.99
2018-12-17T15:48:45.691Z,68.10
2018-12-17T15:51:17.215Z,68.11
2018-12-17T15:53:46.839Z,68.14
2018-12-17T15:56:19.296Z,68.06
2018-12-17T15:58:49.230Z,68.10
2018-12-17T16:01:22.047Z,68.33
2018-12-17T16:03:52.755Z,68.09
2018-12-17T16:06:23.455Z,68.52
2018-12-17T16:08:55.738Z,68.41
2018-12-17T16:11:27.838Z,68.58
2018-12-17T16:14:00.410Z,68.73
2018-12-17T16:16:31.392Z,69.11
2018-12-17T16:19:04.746Z,69.62
2018-12-17T16:21:37.228Z,69.53
2018-12-17T16:24:09.896Z,70.05
2018-12-17T16:26:41.484Z,70.20
2018-12-17T16:29:13.694Z,69.99
2018-12-17T16:31:45.399Z,70.38
2018-12-17T16:34:16.853Z,70.13
2018-12-17T16:36:49.663Z,70.37
2018-12-17T16:39:21.806Z,70.46
2018-12-17T16:41:52.259Z,70.48
2018-12-17T16:44:28.307Z,70.49
2018-12-17T16:46:59.279Z,69.83
2018-12-17T16:49:29.536Z,69.83
2018-12-17T16:52:02.313Z,70.06
2018-12-17T16:54:34.454Z,70.48
2018-12-17T16:57:06.285Z,70.63
2018-12-17T16:59:38.718Z,70.03
2018-12-17T17:02:09.461Z,70.23
2018-12-17T17:04:40.765Z,70.19
2018-12-17T17:07:12.305Z,70.64
2018-12-17T17:09:43.998Z,70.16
2018-12-17T17:12:16.916Z,70.18
2018-12-17T17:14:48.421Z,70.50
2018-12-17T17:17:27.655Z,70.59
2018-12-17T17:20:00.892Z,71.04
2018-12-17T17:22:33.502Z,70.83
2018-12-17T17:25:06.996Z,71.13
2018-12-17T17:27:38.829Z,70.96
2018-12-17T17:30:13.087Z,71.03
2018-12-17T17:32:43.855Z,71.28
2018-12-17T17:35:15.801Z,70.88
2018-12-17T17:37:46.198Z,70.76
2018-12-17T17:40:17.111Z,70.51
2018-12-17T17:42:51.050Z,70.81
2018-12-17T17:45:22.706Z,70.66
2018-12-17T17:47:53.146Z,69.95
2018-12-17T17:50:24.406Z,69.87
2018-12-17T17:53:09.120Z,69.43
2018-12-17T17:55:40.482Z,69.70
2018-12-17T17:58:10.729Z,69.77
2018-12-17T18:00:41.271Z,69.43
2018-12-17T18:03:11.947Z,69.27
2018-12-17T18:05:41.376Z,69.40
2018-12-17T18:08:10.926Z,69.41
2018-12-17T18:10:41.221Z,69.05
2018-12-17T18:13:12.172Z,68.83
2018-12-17T18:15:42.571Z,68.38
2018-12-17T18:18:12.985Z,68.54
2018-12-17T18:20:43.586Z,68.73
2018-12-17T18:23:14.658Z,68.84
2018-12-17T18:25:48.665Z,68.38
2018-12-17T18:28:22.961Z,68.49
2018-12-17T18:30:53.544Z,68.66
2018-12-17T18:33:26.246Z,68.96
2018-12-17T18:35:58.549Z,68.33
2018-12-17T18:38:30.432Z,68.26
2018-12-17T18:41:00.359Z,68.31
2018-12-17T18:43:32.196Z,68.14
2018-12-17T18:46:01.810Z,68.38
2018-12-17T18:48:32.506Z,68.21
2018-12-17T18:51:07.748Z,68.15
2018-12-17T18:53:40.649Z,68.24
2018-12-17T18:56:11.875Z,68.18
2018-12-17T18:58:43.394Z,67.97
2018-12-17T19:01:20.543Z,67.94
2018-12-17T19:03:56.399Z,68.07
2018-12-17T19:06:31.427Z,68.17
2018-12-17T19:09:01.170Z,68.67
2018-12-17T19:11:31.556Z,68.45
2018-12-17T19:14:01.648Z,68.55
2018-12-17T19:16:34.634Z,68.69
2018-12-17T19:19:11.181Z,68.46
2018-12-17T19:21:41.454Z,68.58
2018-12-17T19:24:15.539Z,68.43
2018-12-17T19:26:45.989Z,68.64
2018-12-17T19:29:16.394Z,68.46
2018-12-17T19:31:51.071Z,68.63
2018-12-17T19:34:23.276Z,68.76
2018-12-17T19:36:54.685Z,68.89
2018-12-17T19:39:24.426Z,68.59
2018-12-17T19:41:54.541Z,68.42
2018-12-17T19:44:24.044Z,68.24
2018-12-17T19:46:54.058Z,68.23
2018-12-17T19:49:23.779Z,68.45
2018-12-17T19:51:54.001Z,68.43
2018-12-17T19:54:24.728Z,68.43
2018-12-17T19:56:55.057Z,68.26
2018-12-17T19:59:25.455Z,68.07
2018-12-17T20:01:55.184Z,68.48
2018-12-17T20:04:30.778Z,68.89
2018-12-17T20:07:04.455Z,68.75
2018-12-17T20:09:36.031Z,68.95
2018-12-17T20:12:06.607Z,69.57
2018-12-17T20:14:38.173Z,69.55
2018-12-17T20:17:08.488Z,69.48
2018-12-17T20:19:41.948Z,69.42
2018-12-17T20:22:15.591Z,69.44
2018-12-17T20:24:45.455Z,69.33
2018-12-17T20:27:20.798Z,69.35
2018-12-17T20:29:52.952Z,69.18
2018-12-17T20:32:23.641Z,69.17
2018-12-17T20:34:54.534Z,69.52
2018-12-17T20:37:24.402Z,69.55
2018-12-17T20:39:54.858Z,69.58
2018-12-17T20:42:26.993Z,69.39
2018-12-17T20:44:57.429Z,69.40
2018-12-17T20:47:32.928Z,69.60
2018-12-17T20:50:07.542Z,69.66
2018-12-17T20:52:37.665Z,69.93
2018-12-17T20:55:10.358Z,69.74
2018-12-17T20:57:39.792Z,69.62
2018-12-17T21:00:09.739Z,70.19
2018-12-17T21:02:39.158Z,70.49
2018-12-17T21:05:09.182Z,70.71
2018-12-17T21:07:38.829Z,70.75
2018-12-17T21:10:10.999Z,71.48
2018-12-17T21:12:40.835Z,71.39
2018-12-17T21:15:15.092Z,71.19
2018-12-17T21:17:44.509Z,71.38
2018-12-17T21:20:16.938Z,71.19
2018-12-17T21:22:46.375Z,71.81
2018-12-17T21:25:18.305Z,71.77
2018-12-17T21:27:49.062Z,71.81
2018-12-17T21:30:20.986Z,71.99
2018-12-17T21:32:52.497Z,71.63
2018-12-17T21:38:09.258Z,71.72
2018-12-17T21:40:43.212Z,71.42
2018-12-17T21:43:19.250Z,71.50
2018-12-17T21:45:56.612Z,71.66
2018-12-17T21:48:28.309Z,71.92
2018-12-17T21:50:59.309Z,71.49
2018-12-17T21:53:30.921Z,71.61
2018-12-17T21:56:01.004Z,71.64
2018-12-17T21:58:31.089Z,71.89
2018-12-17T22:01:00.969Z,71.64
2018-12-17T22:03:30.476Z,71.99
2018-12-17T22:06:00.792Z,71.94
2018-12-17T22:08:32.881Z,72.06
2018-12-17T22:11:03.533Z,72.37
2018-12-17T22:13:33.691Z,72.31
2018-12-17T22:16:09.059Z,72.67
2018-12-17T22:18:38.909Z,72.93
2018-12-17T22:21:09.394Z,72.23
2018-12-17T22:23:39.811Z,72.58
2018-12-17T22:26:14.153Z,72.38
2018-12-17T22:28:44.549Z,72.32
2018-12-17T22:31:15.910Z,72.48
2018-12-17T22:33:47.278Z,72.39
2018-12-17T22:36:19.031Z,72.63
2018-12-17T22:38:49.472Z,72.93
2018-12-17T22:41:19.711Z,72.42
2018-12-17T22:43:50.929Z,72.53
2018-12-17T22:46:23.878Z,72.41
2018-12-17T22:48:55.594Z,72.55
2018-12-17T22:51:27.322Z,71.95
2018-12-17T22:54:00.888Z,71.89
2018-12-17T22:56:30.476Z,72.04
2018-12-17T22:59:01.646Z,72.39
2018-12-17T23:01:34.768Z,72.59
2018-12-17T23:04:08.711Z,72.81
2018-12-17T23:06:42.579Z,72.90
2018-12-17T23:09:10.848Z,73.75
2018-12-17T23:11:57.376Z,73.39
2018-12-17T23:14:38.497Z,73.02
2018-12-17T23:17:20.255Z,73.24
2018-12-17T23:19:50.932Z,72.94
2018-12-17T23:22:21.680Z,72.78
2018-12-17T23:24:51.645Z,72.76
2018-12-17T23:27:21.323Z,72.33
2018-12-17T23:29:51.421Z,72.62
2018-12-17T23:32:21.636Z,72.71
2018-12-17T23:34:57.033Z,72.46
2018-12-17T23:37:27.789Z,72.15
2018-12-17T23:39:58.859Z,72.32
2018-12-17T23:42:32.118Z,71.99
2018-12-17T23:45:02.195Z,72.30
2018-12-17T23:47:32.547Z,72.56
2018-12-17T23:50:04.047Z,72.74
2018-12-17T23:52:35.965Z,72.55
2018-12-17T23:55:08.663Z,72.48
2018-12-17T23:57:38.375Z,73.15
